Time,TemperatureF,DewpointF,PressureIn,WindDirection,WindDirectionDegrees,WindSpeedMPH,WindSpeedGustMPH,Humidity,HourlyPrecipIn,Conditions,Clouds,dailyrainin,SoftwareType,DateUTC
2013-03-10 00:19:00,32.9,28.0,30.31,NE,36,0.0,3.0,83,0.00,,,0.00,weatherlink.com 1.10,2013-03-10 05:19:00,
2013-03-10 00:34:00,33.0,28.0,30.32,NE,47,0.0,2.0,83,0.00,,,0.00,weatherlink.com 1.10,2013-03-10 05:34:00,
2013-03-10 00:49:00,31.9,28.0,30.32,NNW,342,1.0,2.0,84,0.00,,,0.00,weatherlink.com 1.10,2013-03-10 05:49:00,
2013-03-10 01:04:00,31.6,28.0,30.32,NNE,28,0.0,1.0,85,0.00,,,0.00,weatherlink.com 1.10,2013-03-10 06:04:00,
2013-03-10 01:19:00,31.7,28.0,30.32,NW,312,1.0,2.0,86,0.00,,,0.00,weatherlink.com 1.10,2013-03-10 06:19:00,
2013-03-10 01:34:00,31.6,28.0,30.32,NNE,29,1.0,2.0,87,0.00,,,0.00,weatherlink.com 1.10,2013-03-10 06:34:00,
2013-03-10 01:49:00,31.6,28.0,30.32,NE,50,2.0,3.0,87,0.00,,,0.00,weatherlink.com 1.10,2013-03-10 06:49:00,
2013-03-10 03:04:00,31.8,28.0,30.32,NE,37,2.0,4.0,87,0.00,,,0.00,weatherlink.com 1.10,2013-03-10 07:04:00,
2013-03-10 03:19:00,31.9,29.0,30.32,NNE,23,0.0,5.0,87,0.00,,,0.00,weatherlink.com 1.10,2013-03-10 07:19:00,
2013-03-10 03:34:00,32.0,29.0,30.31,NNE,23,3.0,5.0,87,0.00,,,0.00,weatherlink.com 1.10,2013-03-10 07:34:00,
2013-03-10 03:49:00,31.9,29.0,30.31,NE,53,3.0,8.0,88,0.00,,,0.00,weatherlink.com 1.10,2013-03-10 07:49:00,
2013-03-10 04:04:00,31.8,29.0,30.31,ENE,68,2.0,7.0,88,0.00,,,0.00,weatherlink.com 1.10,2013-03-10 08:04:00,
2013-03-10 04:19:00,31.8,29.0,30.30,NNE,33,2.0,6.0,88,0.00,,,0.00,weatherlink.com 1.10,2013-03-10 08:19:00,
2013-03-10 04:34:00,31.7,29.0,30.31,NE,49,2.0,4.0,89,0.00,,,0.00,weatherlink.com 1.10,2013-03-10 08:34:00,
2013-03-10 04:49:00,31.1,28.0,30.32,NNW,342,0.0,2.0,89,0.00,,,0.00,weatherlink.com 1.10,2013-03-10 08:49:00,
2013-03-10 05:04:00,30.8,28.0,30.33,North,358,1.0,4.0,90,0.00,,,0.00,weatherlink.com 1.10,2013-03-10 09:04:00,
2013-03-10 05:19:00,30.6,28.0,30.33,NE,37,0.0,5.0,90,0.00,,,0.00,weatherlink.com 1.10,2013-03-10 09:19:00,
2013-03-10 05:34:00,30.7,28.0,30.33,North,11,3.0,5.0,90,0.00,,,0.00,weatherlink.com 1.10,2013-03-10 09:34:00,
2013-03-10 05:49:00,30.7,28.0,30.32,NE,41,2.0,7.0,90,0.00,,,0.00,weatherlink.com 1.10,2013-03-10 09:49:00,
2013-03-10 06:04:00,30.7,28.0,30.32,NE,45,0.0,6.0,91,0.00,,,0.00,weatherlink.com 1.10,2013-03-10 10:04:00,
2013-03-10 06:19:00,30.6,28.0,30.32,NNE,13,1.0,5.0,91,0.00,,,0.00,weatherlink.com 1.10,2013-03-10 10:19:00,
2013-03-10 06:34:00,30.3,28.0,30.33,NNE,26,1.0,3.0,91,0.00,,,0.00,weatherlink.com 1.10,2013-03-10 10:34:00,
2013-03-10 06:49:00,29.9,28.0,30.34,WNW,297,2.0,3.0,91,0.00,,,0.00,weatherlink.com 1.10,2013-03-10 10:49:00,
2013-03-10 07:05:00,29.7,28.0,30.34,NW,316,0.0,3.0,92,0.00,,,0.00,weatherlink.com 1.10,2013-03-10 11:05:00,
2013-03-10 07:20:00,29.6,28.0,30.35,NW,314,1.0,4.0,92,0.00,,,0.00,weatherlink.com 1.10,2013-03-10 11:20:00,
2013-03-10 07:35:00,29.5,28.0,30.35,NNW,340,1.0,3.0,92,0.00,,,0.00,weatherlink.com 1.10,2013-03-10 11:35:00,
2013-03-10 07:50:00,30.4,28.0,30.36,NNW,340,0.0,2.0,92,0.00,,,0.00,weatherlink.com 1.10,2013-03-10 11:50:00,
2013-03-10 08:05:00,31.2,29.0,30.36,NW,314,2.0,3.0,91,0.00,,,0.00,weatherlink.com 1.10,2013-03-10 12:05:00,
2013-03-10 08:20:00,32.1,29.0,30.36,North,4,0.0,4.0,89,0.00,,,0.00,weatherlink.com 1.10,2013-03-10 12:20:00,
2013-03-10 08:35:00,32.4,30.0,30.36,NE,44,1.0,5.0,89,0.00,,,0.00,weatherlink.com 1.10,2013-03-10 12:35:00,
2013-03-10 08:50:00,32.8,30.0,30.36,NE,34,1.0,4.0,89,0.00,,,0.00,weatherlink.com 1.10,2013-03-10 12:50:00,
2013-03-10 09:05:00,33.5,30.0,30.36,NNE,26,0.0,3.0,88,0.00,,,0.00,weatherlink.com 1.10,2013-03-10 13:05:00,
2013-03-10 09:20:00,34.2,31.0,30.37,NE,43,0.0,4.0,86,0.00,,,0.00,weatherlink.com 1.10,2013-03-10 13:20:00,
2013-03-10 09:35:00,34.6,31.0,30.37,NNE,12,1.0,5.0,86,0.00,,,0.00,weatherlink.com 1.10,2013-03-10 13:35:00,
2013-03-10 09:50:00,35.4,31.0,30.36,ENE,61,2.0,5.0,85,0.00,,,0.00,weatherlink.com 1.10,2013-03-10 13:50:00,
2013-03-10 10:05:00,36.2,32.0,30.36,North,1,3.0,5.0,83,0.00,,,0.00,weatherlink.com 1.10,2013-03-10 14:05:00,
2013-03-10 10:20:00,37.1,32.0,30.37,ENE,71,1.0,3.0,81,0.00,,,0.00,weatherlink.com 1.10,2013-03-10 14:20:00,
2013-03-10 10:35:00,37.6,32.0,30.37,East,88,1.0,4.0,81,0.00,,,0.00,weatherlink.com 1.10,2013-03-10 14:35:00,
2013-03-10 10:50:00,38.1,32.0,30.37,ENE,71,2.0,7.0,79,0.00,,,0.00,weatherlink.com 1.10,2013-03-10 14:50:00,
2013-03-10 11:05:00,38.3,32.0,30.37,ENE,58,4.0,6.0,79,0.00,,,0.00,weatherlink.com 1.10,2013-03-10 15:05:00,
2013-03-10 11:20:00,39.4,33.0,30.37,ENE,68,3.0,4.0,77,0.00,,,0.00,weatherlink.com 1.10,2013-03-10 15:20:00,
2013-03-10 11:35:00,40.2,33.0,30.36,SE,141,1.0,3.0,76,0.00,,,0.00,weatherlink.com 1.10,2013-03-10 15:35:00,
2013-03-10 11:50:00,40.9,34.0,30.36,ESE,105,0.0,3.0,76,0.00,,,0.00,weatherlink.com 1.10,2013-03-10 15:50:00,
2013-03-10 12:05:00,41.7,34.0,30.36,East,94,1.0,3.0,74,0.00,,,0.00,weatherlink.com 1.10,2013-03-10 16:05:00,
2013-03-10 12:20:00,42.1,34.0,30.35,SE,141,1.0,2.0,73,0.00,,,0.00,weatherlink.com 1.10,2013-03-10 16:20:00,
2013-03-10 12:35:00,42.2,34.0,30.35,SE,141,1.0,3.0,73,0.00,,,0.00,weatherlink.com 1.10,2013-03-10 16:35:00,
2013-03-10 12:50:00,42.3,35.0,30.35,SSE,163,1.0,5.0,74,0.00,,,0.00,weatherlink.com 1.10,2013-03-10 16:50:00,
2013-03-10 13:05:00,42.7,35.0,30.35,SSE,150,3.0,4.0,73,0.00,,,0.00,weatherlink.com 1.10,2013-03-10 17:05:00,
2013-03-10 13:20:00,42.6,35.0,30.34,SE,129,1.0,4.0,74,0.00,,,0.00,weatherlink.com 1.10,2013-03-10 17:20:00,
2013-03-10 13:35:00,42.5,35.0,30.35,SE,145,1.0,3.0,74,0.00,,,0.00,weatherlink.com 1.10,2013-03-10 17:35:00,
2013-03-10 13:50:00,42.2,34.0,30.34,SE,141,2.0,4.0,74,0.00,,,0.00,weatherlink.com 1.10,2013-03-10 17:50:00,
2013-03-10 14:06:00,41.8,34.0,30.34,ESE,119,2.0,4.0,75,0.00,,,0.00,weatherlink.com 1.10,2013-03-10 18:06:00,
2013-03-10 14:20:00,41.9,35.0,30.33,South,175,2.0,3.0,75,0.00,,,0.00,weatherlink.com 1.10,2013-03-10 18:20:00,
2013-03-10 14:36:00,42.6,35.0,30.33,SE,136,2.0,3.0,73,0.00,,,0.00,weatherlink.com 1.10,2013-03-10 18:36:00,
2013-03-10 14:51:00,42.2,34.0,30.33,SSE,158,2.0,3.0,74,0.00,,,0.00,weatherlink.com 1.10,2013-03-10 18:51:00,
2013-03-10 15:06:00,41.9,34.0,30.33,South,169,1.0,4.0,74,0.00,,,0.00,weatherlink.com 1.10,2013-03-10 19:06:00,
2013-03-10 15:21:00,41.7,34.0,30.33,SSE,150,0.0,3.0,74,0.00,,,0.00,weatherlink.com 1.10,2013-03-10 19:21:00,
2013-03-10 15:36:00,42.4,35.0,30.33,SE,133,1.0,3.0,74,0.00,,,0.00,weatherlink.com 1.10,2013-03-10 19:36:00,
2013-03-10 15:51:00,42.0,34.0,30.32,ESE,109,0.0,2.0,74,0.00,,,0.00,weatherlink.com 1.10,2013-03-10 19:51:00,
2013-03-10 16:06:00,42.0,35.0,30.33,SSE,150,2.0,4.0,75,0.00,,,0.00,weatherlink.com 1.10,2013-03-10 20:06:00,
2013-03-10 16:21:00,42.3,35.0,30.33,SSE,155,1.0,3.0,74,0.00,,,0.00,weatherlink.com 1.10,2013-03-10 20:21:00,
2013-03-10 16:37:00,41.9,34.0,30.32,SSW,203,0.0,4.0,74,0.00,,,0.00,weatherlink.com 1.10,2013-03-10 20:37:00,
2013-03-10 16:51:00,41.7,34.0,30.32,SE,136,1.0,3.0,74,0.00,,,0.00,weatherlink.com 1.10,2013-03-10 20:51:00,
2013-03-10 17:06:00,42.2,34.0,30.32,SSE,150,1.0,3.0,73,0.00,,,0.00,weatherlink.com 1.10,2013-03-10 21:06:00,
2013-03-10 17:21:00,41.6,34.0,30.32,SE,134,0.0,1.0,73,0.00,,,0.00,weatherlink.com 1.10,2013-03-10 21:21:00,
2013-03-10 17:36:00,40.5,34.0,30.31,SE,135,1.0,2.0,76,0.00,,,0.00,weatherlink.com 1.10,2013-03-10 21:36:00,
2013-03-10 18:06:00,39.9,33.0,30.31,SE,141,0.0,2.0,77,0.00,,,0.00,weatherlink.com 1.10,2013-03-10 22:06:00,
2013-03-10 18:36:00,37.9,33.0,30.32,SSE,153,0.0,-999.0,81,-99.99,,,0.00,weatherlink.com 1.10,2013-03-10 22:36:00,
2013-03-10 18:51:00,37.0,33.0,30.32,SE,145,0.0,1.0,84,0.00,,,0.00,weatherlink.com 1.10,2013-03-10 22:51:00,
2013-03-10 20:06:00,35.9,33.0,30.33,SSE,163,0.0,1.0,88,0.00,,,0.00,weatherlink.com 1.10,2013-03-11 00:06:00,
2013-03-10 20:21:00,36.2,33.0,30.32,SE,134,1.0,3.0,88,0.00,,,0.00,weatherlink.com 1.10,2013-03-11 00:21:00,
2013-03-10 20:52:00,36.3,33.0,30.32,SE,139,0.0,1.0,87,0.00,,,0.00,weatherlink.com 1.10,2013-03-11 00:52:00,
2013-03-10 21:21:00,36.2,33.0,30.32,SE,138,0.0,1.0,87,0.00,,,0.00,weatherlink.com 1.10,2013-03-11 01:21:00,
2013-03-10 21:51:00,35.6,33.0,30.32,SSE,148,0.0,1.0,89,0.00,,,0.00,weatherlink.com 1.10,2013-03-11 01:51:00,
2013-03-10 22:06:00,35.1,33.0,30.32,South,190,0.0,1.0,90,0.00,,,0.00,weatherlink.com 1.10,2013-03-11 02:06:00,
2013-03-10 22:21:00,35.1,33.0,30.32,South,191,0.0,1.0,91,0.00,,,0.00,weatherlink.com 1.10,2013-03-11 02:21:00,
2013-03-10 22:36:00,35.6,33.0,30.32,SSE,154,0.0,1.0,91,0.00,,,0.00,weatherlink.com 1.10,2013-03-11 02:36:00,
2013-03-10 23:36:00,37.0,34.0,30.30,SSW,193,0.0,2.0,90,0.00,,,0.00,weatherlink.com 1.10,2013-03-11 03:36:00,
2013-03-10 23:51:00,37.2,35.0,30.30,SE,135,0.0,2.0,90,0.00,,,0.00,weatherlink.com 1.10,2013-03-11 03:51:00,